createdAt,value
2023-01-19T00:00:08.462Z,7.33
2023-01-19T00:02:35.609Z,7.23
2023-01-19T00:05:04.083Z,7.47
2023-01-19T00:07:31.427Z,7.79
2023-01-19T00:09:58.687Z,8.21
2023-01-19T00:12:26.290Z,8.45
2023-01-19T00:14:53.484Z,8.64
2023-01-19T00:17:20.648Z,8.51
2023-01-19T00:19:48.112Z,8.74
2023-01-19T00:22:15.257Z,9.01
2023-01-19T00:24:42.624Z,9.32
2023-01-19T00:27:10.095Z,9.75
2023-01-19T00:29:37.287Z,9.84
2023-01-19T00:32:04.789Z,9.93
2023-01-19T00:34:39.660Z,9.83
2023-01-19T00:37:07.851Z,9.87
2023-01-19T00:39:35.263Z,9.94
2023-01-19T00:42:20.951Z,10.24
2023-01-19T00:44:48.419Z,10.39
2023-01-19T00:47:15.637Z,10.23
2023-01-19T00:49:42.848Z,9.92
2023-01-19T00:52:10.892Z,10.11
2023-01-19T00:54:38.106Z,9.93
2023-01-19T00:57:05.326Z,10.17
2023-01-19T00:59:32.891Z,10.13
2023-01-19T01:02:00.320Z,10.13
2023-01-19T01:04:27.707Z,10.09
2023-01-19T01:06:55.221Z,10.14
2023-01-19T01:09:22.449Z,10.31
2023-01-19T01:11:49.621Z,10.45
2023-01-19T01:14:19.184Z,10.14
2023-01-19T01:16:46.538Z,9.96
2023-01-19T01:19:13.720Z,10.07
2023-01-19T01:21:41.279Z,10.19
2023-01-19T01:24:08.828Z,10.48
2023-01-19T01:26:35.984Z,10.34
2023-01-19T01:29:04.860Z,9.88
2023-01-19T01:31:32.112Z,9.75
2023-01-19T01:33:59.330Z,9.33
2023-01-19T01:36:29.185Z,9.63
2023-01-19T01:38:56.539Z,9.50
2023-01-19T01:41:25.358Z,9.53
2023-01-19T01:43:56.502Z,9.31
2023-01-19T01:46:24.189Z,8.93
2023-01-19T01:48:57.253Z,8.99
2023-01-19T01:51:26.441Z,9.45
2023-01-19T01:54:02.762Z,9.58
2023-01-19T01:56:32.835Z,10.02
2023-01-19T01:59:00.035Z,10.35
2023-01-19T02:01:45.943Z,10.06
2023-01-19T02:04:13.439Z,10.33
2023-01-19T02:06:59.260Z,10.31
2023-01-19T02:09:45.367Z,10.06
2023-01-19T02:12:31.263Z,9.92
2023-01-19T02:14:58.685Z,9.41
2023-01-19T02:17:25.865Z,8.85
2023-01-19T02:19:53.891Z,9.30
2023-01-19T02:22:25.794Z,8.98
2023-01-19T02:24:53.039Z,9.09
2023-01-19T02:27:20.628Z,9.44
2023-01-19T02:29:47.846Z,9.88
2023-01-19T02:32:15.029Z,9.70
2023-01-19T02:34:42.517Z,10.23
2023-01-19T02:37:13.126Z,9.89
2023-01-19T02:39:45.194Z,9.79
2023-01-19T02:42:13.639Z,10.09
2023-01-19T02:44:41.098Z,10.44
2023-01-19T02:47:08.574Z,10.04
2023-01-19T02:49:36.608Z,10.44
2023-01-19T02:52:04.331Z,10.79
2023-01-19T02:54:31.496Z,10.25
2023-01-19T02:57:17.575Z,10.75
2023-01-19T03:00:03.303Z,10.80
2023-01-19T03:02:43.700Z,10.86
2023-01-19T03:05:29.814Z,10.54
2023-01-19T03:08:09.450Z,10.58
2023-01-19T03:10:36.629Z,10.71
2023-01-19T03:13:19.482Z,10.67
2023-01-19T03:15:56.696Z,10.62
2023-01-19T03:18:25.186Z,10.64
2023-01-19T03:20:53.864Z,10.76
2023-01-19T03:23:21.179Z,10.90
2023-01-19T03:25:48.688Z,10.86
2023-01-19T03:28:16.312Z,10.72
2023-01-19T03:30:46.647Z,10.68
2023-01-19T03:33:19.038Z,10.67
2023-01-19T03:35:48.963Z,10.80
2023-01-19T03:38:17.273Z,11.05
2023-01-19T03:40:44.568Z,10.74
2023-01-19T03:43:11.780Z,10.79
2023-01-19T03:45:39.262Z,10.59
2023-01-19T03:48:06.643Z,10.65
2023-01-19T03:50:33.850Z,10.19
2023-01-19T03:53:01.677Z,10.30
2023-01-19T03:55:29.101Z,10.32
2023-01-19T03:57:56.258Z,10.47
2023-01-19T04:00:24.259Z,10.23
2023-01-19T04:02:51.961Z,9.82
2023-01-19T04:05:19.285Z,9.56
2023-01-19T04:07:48.141Z,9.29
2023-01-19T04:10:16.817Z,9.37
2023-01-19T04:12:44.256Z,9.57
2023-01-19T04:15:11.574Z,9.21
2023-01-19T04:17:39.342Z,9.22
2023-01-19T04:20:06.882Z,9.14
2023-01-19T04:22:34.142Z,9.14
2023-01-19T04:25:01.790Z,9.19
2023-01-19T04:27:29.138Z,9.45
2023-01-19T04:29:56.479Z,9.54
2023-01-19T04:32:23.944Z,9.43
2023-01-19T04:34:51.583Z,9.07
2023-01-19T04:37:18.797Z,8.96
2023-01-19T04:39:46.606Z,8.56
2023-01-19T04:42:13.744Z,8.58
2023-01-19T04:44:40.889Z,9.10
2023-01-19T04:47:08.419Z,8.90
2023-01-19T04:49:38.334Z,8.95
2023-01-19T04:52:06.161Z,8.91
2023-01-19T04:54:33.713Z,8.51
2023-01-19T04:57:00.943Z,8.70
2023-01-19T04:59:28.213Z,8.08
2023-01-19T05:01:56.631Z,8.02
2023-01-19T05:04:24.252Z,7.92
2023-01-19T05:06:51.915Z,8.20
2023-01-19T05:09:19.344Z,7.96
2023-01-19T05:11:46.482Z,8.17
2023-01-19T05:14:13.707Z,8.40
2023-01-19T05:16:41.270Z,8.83
2023-01-19T05:19:08.465Z,9.02
2023-01-19T05:21:35.738Z,8.99
2023-01-19T05:24:04.108Z,9.18
2023-01-19T05:26:31.291Z,9.16
2023-01-19T05:28:58.481Z,8.88
2023-01-19T05:31:26.026Z,9.18
2023-01-19T05:33:53.333Z,9.41
2023-01-19T05:36:20.483Z,9.59
2023-01-19T05:38:47.965Z,9.76
2023-01-19T05:41:15.327Z,9.91
2023-01-19T05:43:42.483Z,9.78
2023-01-19T05:46:09.948Z,9.97
2023-01-19T05:48:37.172Z,9.95
2023-01-19T05:51:05.196Z,9.80
2023-01-19T05:53:32.702Z,9.72
2023-01-19T05:56:04.043Z,9.63
2023-01-19T05:58:31.497Z,9.57
2023-01-19T06:01:01.896Z,9.70
2023-01-19T06:03:29.451Z,8.81
2023-01-19T06:05:59.612Z,9.00
2023-01-19T06:08:26.822Z,8.09
2023-01-19T06:10:54.304Z,8.73
2023-01-19T06:13:21.509Z,9.31
2023-01-19T06:15:48.734Z,9.17
2023-01-19T06:18:16.318Z,9.23
2023-01-19T06:20:43.515Z,9.18
2023-01-19T06:23:10.975Z,9.00
2023-01-19T06:25:39.185Z,8.76
2023-01-19T06:28:06.357Z,8.03
2023-01-19T06:30:33.601Z,8.99
2023-01-19T06:33:01.445Z,8.53
2023-01-19T06:35:28.744Z,8.50
2023-01-19T06:37:55.979Z,7.66
2023-01-19T06:40:23.457Z,8.08
2023-01-19T06:42:50.782Z,8.06
2023-01-19T06:45:17.954Z,7.54
2023-01-19T06:47:47.326Z,8.05
2023-01-19T06:50:14.497Z,7.75
2023-01-19T06:52:42.526Z,7.74
2023-01-19T06:55:10.926Z,7.75
2023-01-19T06:57:38.621Z,7.76
2023-01-19T07:00:08.160Z,8.10
2023-01-19T07:02:36.083Z,7.67
2023-01-19T07:05:03.607Z,8.00
2023-01-19T07:07:31.205Z,8.15
2023-01-19T07:09:58.660Z,7.77
2023-01-19T07:12:25.837Z,8.69
2023-01-19T07:14:52.987Z,8.45
2023-01-19T07:17:20.484Z,8.68
2023-01-19T07:19:47.750Z,8.09
2023-01-19T07:22:14.904Z,8.16
2023-01-19T07:24:42.600Z,8.59
2023-01-19T07:27:11.589Z,9.26
2023-01-19T07:29:39.333Z,9.59
2023-01-19T07:32:07.545Z,9.43
2023-01-19T07:34:34.812Z,9.52
2023-01-19T07:37:01.999Z,9.92
2023-01-19T07:39:30.795Z,9.89
2023-01-19T07:41:57.994Z,9.40
2023-01-19T07:44:25.151Z,9.04
2023-01-19T07:46:52.599Z,8.91
2023-01-19T07:49:20.679Z,9.69
2023-01-19T07:51:47.931Z,9.76
2023-01-19T07:54:15.437Z,9.74
2023-01-19T07:56:42.579Z,9.29
2023-01-19T07:59:10.244Z,9.66
2023-01-19T08:01:37.971Z,9.61
2023-01-19T08:04:05.880Z,9.57
2023-01-19T08:06:34.051Z,9.44
2023-01-19T08:09:01.202Z,10.04
2023-01-19T08:11:28.660Z,9.53
2023-01-19T08:13:55.885Z,9.59
2023-01-19T08:16:23.059Z,9.86
2023-01-19T08:18:50.797Z,9.28
2023-01-19T08:21:18.063Z,9.50
2023-01-19T08:23:45.830Z,9.51
2023-01-19T08:26:39.885Z,8.88
2023-01-19T08:29:07.130Z,9.16
2023-01-19T08:31:34.747Z,8.67
2023-01-19T08:34:02.316Z,8.88
2023-01-19T08:36:29.547Z,8.67
2023-01-19T08:38:57.015Z,9.40
2023-01-19T08:41:24.257Z,9.12
2023-01-19T08:43:51.427Z,9.00
2023-01-19T08:46:21.657Z,9.25
2023-01-19T08:48:49.369Z,9.63
2023-01-19T08:51:16.879Z,9.86
2023-01-19T08:53:44.452Z,9.89
2023-01-19T08:56:15.013Z,9.66
2023-01-19T08:58:43.036Z,9.94
2023-01-19T09:01:11.350Z,10.08
2023-01-19T09:03:38.668Z,10.12
2023-01-19T09:06:09.347Z,9.20
2023-01-19T09:08:36.911Z,9.70
2023-01-19T09:11:05.236Z,9.64
2023-01-19T09:13:32.393Z,9.42
2023-01-19T09:16:02.189Z,9.80
2023-01-19T09:18:29.393Z,9.73
2023-01-19T09:20:57.313Z,9.46
2023-01-19T09:23:25.431Z,9.03
2023-01-19T09:25:56.418Z,9.47
2023-01-19T09:28:23.773Z,8.93
2023-01-19T09:30:51.729Z,8.36
2023-01-19T09:33:19.336Z,8.16
2023-01-19T09:35:47.191Z,7.73
2023-01-19T09:38:15.442Z,7.59
2023-01-19T09:40:43.902Z,7.58
2023-01-19T09:43:14.180Z,7.36
2023-01-19T09:45:46.099Z,7.55
2023-01-19T09:48:20.183Z,8.22
2023-01-19T09:50:48.518Z,7.64
2023-01-19T09:53:34.721Z,7.54
2023-01-19T09:56:02.188Z,7.55
2023-01-19T09:58:29.453Z,6.93
2023-01-19T10:00:59.334Z,7.05
2023-01-19T10:03:26.951Z,7.53
2023-01-19T10:06:04.484Z,6.81
2023-01-19T10:08:35.037Z,6.88
2023-01-19T10:11:02.303Z,7.40
2023-01-19T10:13:49.411Z,7.00
2023-01-19T10:16:22.721Z,8.01
2023-01-19T10:18:51.767Z,7.42
2023-01-19T10:21:31.472Z,7.51
2023-01-19T10:23:59.953Z,6.88
2023-01-19T10:26:29.845Z,6.99
2023-01-19T10:29:05.437Z,7.00
2023-01-19T10:31:33.069Z,6.87
2023-01-19T10:34:00.376Z,7.03
2023-01-19T10:36:34.849Z,7.07
2023-01-19T10:39:04.376Z,6.58
2023-01-19T10:41:42.034Z,7.28
2023-01-19T10:44:10.877Z,7.19
2023-01-19T10:46:47.908Z,7.47
2023-01-19T10:49:34.151Z,7.34
2023-01-19T10:52:01.358Z,7.72
2023-01-19T10:54:29.867Z,7.43
2023-01-19T10:56:58.056Z,8.03
2023-01-19T10:59:29.936Z,8.15
2023-01-19T11:02:17.594Z,8.63
2023-01-19T11:04:47.341Z,8.00
2023-01-19T11:07:20.799Z,7.42
2023-01-19T11:09:48.105Z,7.58
2023-01-19T11:12:24.167Z,7.43
2023-01-19T11:14:51.834Z,7.33
2023-01-19T11:17:19.790Z,7.60
2023-01-19T11:19:54.547Z,7.68
2023-01-19T11:22:23.253Z,7.39
2023-01-19T11:24:50.544Z,7.33
2023-01-19T11:27:18.372Z,7.25
2023-01-19T11:29:47.423Z,7.34
2023-01-19T11:32:20.339Z,6.95
2023-01-19T11:34:48.044Z,7.47
2023-01-19T11:37:20.985Z,7.40
2023-01-19T11:39:49.465Z,7.65
2023-01-19T11:42:16.911Z,6.97
2023-01-19T11:45:04.072Z,8.25
2023-01-19T11:47:40.921Z,7.38
2023-01-19T11:50:23.661Z,7.38
2023-01-19T11:53:00.316Z,7.27
2023-01-19T11:55:27.455Z,7.57
2023-01-19T11:57:54.939Z,7.53
2023-01-19T12:00:24.827Z,7.65
2023-01-19T12:02:53.875Z,7.26
2023-01-19T12:05:21.124Z,7.94
2023-01-19T12:07:48.314Z,8.19
2023-01-19T12:10:18.580Z,7.40
2023-01-19T12:12:45.752Z,7.67
2023-01-19T12:15:18.955Z,7.39
2023-01-19T12:17:48.860Z,7.67
2023-01-19T12:20:27.205Z,7.54
2023-01-19T12:22:59.664Z,7.33
2023-01-19T12:25:31.777Z,6.88
2023-01-19T12:27:59.388Z,7.33
2023-01-19T12:30:27.356Z,6.69
2023-01-19T12:33:13.292Z,6.49
2023-01-19T12:36:00.807Z,6.85
2023-01-19T12:38:46.832Z,6.73
2023-01-19T12:41:33.356Z,7.20
2023-01-19T12:44:09.787Z,7.13
2023-01-19T12:46:40.174Z,7.51
2023-01-19T12:49:10.855Z,6.91
2023-01-19T12:51:38.446Z,7.24
2023-01-19T12:54:07.527Z,7.39
2023-01-19T12:56:35.635Z,7.60
2023-01-19T12:59:03.324Z,6.95
2023-01-19T13:01:31.500Z,6.83
2023-01-19T13:04:09.382Z,6.64
2023-01-19T13:06:48.973Z,6.89
2023-01-19T13:09:28.555Z,6.87
2023-01-19T13:12:11.067Z,6.99
2023-01-19T13:14:38.329Z,7.05
2023-01-19T13:17:24.417Z,6.38
2023-01-19T13:19:53.040Z,6.38
2023-01-19T13:22:39.496Z,5.95
2023-01-19T13:25:06.900Z,6.09
2023-01-19T13:27:34.765Z,6.28
2023-01-19T13:30:02.176Z,6.33
2023-01-19T13:32:29.757Z,6.29
2023-01-19T13:34:59.153Z,6.49
2023-01-19T13:37:27.427Z,6.44
2023-01-19T13:39:54.675Z,6.30
2023-01-19T13:42:26.357Z,5.67
2023-01-19T13:44:53.812Z,6.15
2023-01-19T13:47:25.597Z,6.55
2023-01-19T13:49:57.011Z,6.34
2023-01-19T13:52:25.301Z,6.92
2023-01-19T13:55:03.489Z,6.89
2023-01-19T13:57:31.877Z,6.87
2023-01-19T14:00:12.167Z,7.08
2023-01-19T14:02:40.304Z,7.58
2023-01-19T14:05:24.652Z,6.40
2023-01-19T14:08:12.101Z,7.15
2023-01-19T14:10:39.490Z,7.08
2023-01-19T14:13:13.221Z,7.25
2023-01-19T14:15:40.883Z,6.55
2023-01-19T14:18:28.681Z,6.85
2023-01-19T14:20:56.214Z,6.78
2023-01-19T14:23:35.816Z,7.28
2023-01-19T14:26:03.321Z,6.45
2023-01-19T14:28:39.467Z,6.03
2023-01-19T14:31:23.859Z,6.47
2023-01-19T14:33:52.629Z,6.05
2023-01-19T14:36:30.177Z,6.56
2023-01-19T14:38:58.638Z,6.38
2023-01-19T14:41:35.302Z,6.27
2023-01-19T14:44:03.257Z,6.47
2023-01-19T14:46:30.777Z,6.84
2023-01-19T14:49:00.727Z,7.07
2023-01-19T14:51:27.919Z,6.97
2023-01-19T14:53:58.559Z,6.90
2023-01-19T14:56:26.854Z,6.69
2023-01-19T14:58:55.214Z,7.06
2023-01-19T15:01:23.259Z,6.79
2023-01-19T15:03:50.695Z,6.90
2023-01-19T15:06:19.086Z,6.93
2023-01-19T15:08:46.748Z,6.95
2023-01-19T15:11:23.677Z,6.91
2023-01-19T15:13:51.466Z,6.66
2023-01-19T15:16:18.732Z,7.20
2023-01-19T15:18:46.034Z,7.21
2023-01-19T15:21:15.294Z,6.84
2023-01-19T15:23:42.527Z,7.59
2023-01-19T15:26:10.226Z,7.54
2023-01-19T15:28:37.722Z,7.19
2023-01-19T15:31:05.200Z,7.04
2023-01-19T15:33:32.635Z,6.94
2023-01-19T15:36:00.146Z,6.71
2023-01-19T15:38:27.782Z,7.21
2023-01-19T15:40:55.102Z,7.09
2023-01-19T15:43:22.586Z,7.12
2023-01-19T15:45:51.016Z,6.95
2023-01-19T15:48:19.959Z,7.72
2023-01-19T15:50:47.863Z,7.28
2023-01-19T15:53:16.263Z,7.20
2023-01-19T15:55:43.616Z,7.06
2023-01-19T15:58:13.885Z,7.72
2023-01-19T16:00:41.447Z,6.89
2023-01-19T16:03:09.923Z,7.41
2023-01-19T16:05:42.906Z,6.62
2023-01-19T16:08:11.351Z,7.16
2023-01-19T16:10:38.935Z,6.88
2023-01-19T16:13:06.253Z,6.56
2023-01-19T16:15:36.769Z,6.96
2023-01-19T16:18:04.525Z,6.71
2023-01-19T16:20:31.781Z,7.21
2023-01-19T16:23:13.828Z,7.06
2023-01-19T16:25:41.998Z,7.07
2023-01-19T16:28:09.514Z,7.75
2023-01-19T16:30:36.701Z,7.32
2023-01-19T16:33:05.330Z,7.99
2023-01-19T16:35:32.890Z,7.28
2023-01-19T16:38:00.105Z,7.03
2023-01-19T16:40:27.344Z,7.24
2023-01-19T16:42:54.804Z,6.93
2023-01-19T16:45:22.207Z,6.62
2023-01-19T16:47:52.173Z,6.61
2023-01-19T16:50:19.778Z,6.76
2023-01-19T16:52:46.944Z,7.05
2023-01-19T16:55:14.118Z,6.43
2023-01-19T16:57:41.711Z,6.94
2023-01-19T17:00:10.463Z,6.97
2023-01-19T17:02:38.164Z,6.23
2023-01-19T17:05:06.036Z,7.14
2023-01-19T17:07:33.329Z,7.50
2023-01-19T17:10:00.772Z,7.97
2023-01-19T17:12:29.366Z,7.18
2023-01-19T17:14:58.187Z,6.43
2023-01-19T17:17:25.499Z,6.29
2023-01-19T17:19:53.129Z,6.48
2023-01-19T17:22:20.351Z,6.67
2023-01-19T17:24:47.782Z,6.63
2023-01-19T17:27:15.285Z,6.36
2023-01-19T17:29:42.606Z,5.88
2023-01-19T17:32:11.046Z,6.72
2023-01-19T17:34:38.557Z,5.50
2023-01-19T17:37:05.829Z,6.07
2023-01-19T17:39:33.609Z,6.29
2023-01-19T17:42:01.333Z,6.43
2023-01-19T17:44:28.574Z,6.47
2023-01-19T17:46:56.428Z,5.91
2023-01-19T17:49:24.621Z,6.14
2023-01-19T17:51:54.345Z,6.73
2023-01-19T17:54:21.982Z,6.88
2023-01-19T17:56:50.970Z,6.57
2023-01-19T17:59:18.358Z,6.18
2023-01-19T18:01:46.524Z,6.64
2023-01-19T18:04:14.193Z,6.56
2023-01-19T18:06:41.713Z,6.62
2023-01-19T18:09:09.156Z,6.59
2023-01-19T18:11:36.773Z,6.82
2023-01-19T18:14:04.234Z,7.52
2023-01-19T18:16:32.554Z,6.21
2023-01-19T18:19:00.468Z,7.32
2023-01-19T18:21:28.854Z,7.23
2023-01-19T18:24:00.116Z,6.92
2023-01-19T18:26:28.436Z,6.61
2023-01-19T18:28:59.215Z,6.01
2023-01-19T18:31:26.722Z,5.76
2023-01-19T18:33:54.530Z,5.77
2023-01-19T18:36:21.926Z,6.30
2023-01-19T18:38:49.984Z,6.02
2023-01-19T18:41:18.624Z,5.92
2023-01-19T18:43:46.695Z,5.81
2023-01-19T18:46:14.622Z,5.80
2023-01-19T18:48:42.357Z,6.21
2023-01-19T18:51:10.573Z,6.82
2023-01-19T18:53:38.071Z,6.46
2023-01-19T18:56:06.130Z,6.89
2023-01-19T18:58:34.511Z,7.39
2023-01-19T19:01:02.017Z,6.95
2023-01-19T19:03:29.840Z,7.41
2023-01-19T19:05:57.246Z,7.55
2023-01-19T19:08:24.610Z,7.00
2023-01-19T19:10:52.285Z,7.25
2023-01-19T19:13:21.838Z,7.10
2023-01-19T19:15:49.260Z,6.90
2023-01-19T19:18:16.958Z,6.93
2023-01-19T19:20:44.800Z,7.04
2023-01-19T19:23:12.690Z,7.06
2023-01-19T19:25:40.426Z,7.08
2023-01-19T19:28:07.908Z,7.32
2023-01-19T19:30:37.868Z,7.24
2023-01-19T19:33:05.576Z,5.86
2023-01-19T19:35:32.929Z,6.85
2023-01-19T19:38:00.299Z,6.30
2023-01-19T19:40:28.116Z,6.63
2023-01-19T19:42:58.531Z,6.78
2023-01-19T19:45:26.319Z,6.58
2023-01-19T19:47:54.276Z,6.27
2023-01-19T19:50:21.724Z,7.03
2023-01-19T19:52:49.063Z,6.06
2023-01-19T19:55:16.741Z,6.59
2023-01-19T19:57:44.260Z,6.29
2023-01-19T20:00:12.140Z,6.77
2023-01-19T20:02:40.027Z,6.71
2023-01-19T20:05:07.571Z,5.79
2023-01-19T20:07:35.023Z,6.32
2023-01-19T20:10:02.498Z,6.47
2023-01-19T20:12:29.874Z,6.76
2023-01-19T20:14:57.322Z,7.20
2023-01-19T20:17:25.116Z,6.32
2023-01-19T20:19:52.688Z,6.41
2023-01-19T20:22:20.247Z,6.45
2023-01-19T20:24:48.009Z,6.80
2023-01-19T20:27:15.419Z,6.60
2023-01-19T20:29:42.831Z,6.83
2023-01-19T20:32:10.837Z,5.87
2023-01-19T20:34:38.563Z,6.91
2023-01-19T20:37:06.222Z,6.40
2023-01-19T20:39:35.361Z,6.72
2023-01-19T20:42:02.715Z,6.50
2023-01-19T20:44:30.341Z,6.23
2023-01-19T20:46:58.019Z,7.23
2023-01-19T20:49:25.569Z,6.76
2023-01-19T20:51:53.440Z,6.91
2023-01-19T20:54:22.808Z,6.02
2023-01-19T20:56:50.171Z,5.98
2023-01-19T20:59:17.667Z,5.76
2023-01-19T21:01:45.487Z,5.42
2023-01-19T21:04:13.064Z,5.37
2023-01-19T21:06:40.334Z,5.57
2023-01-19T21:09:08.976Z,5.75
2023-01-19T21:11:36.750Z,5.64
2023-01-19T21:14:04.183Z,5.84
2023-01-19T21:16:32.959Z,5.90
2023-01-19T21:19:00.329Z,5.95
2023-01-19T21:21:31.903Z,6.28
2023-01-19T21:24:00.807Z,4.98
2023-01-19T21:26:29.837Z,5.60
2023-01-19T21:28:58.200Z,5.09
2023-01-19T21:31:27.550Z,5.12
2023-01-19T21:33:55.447Z,4.92
2023-01-19T21:36:23.064Z,4.75
2023-01-19T21:38:51.538Z,5.40
2023-01-19T21:41:18.978Z,5.43
2023-01-19T21:43:46.352Z,5.95
2023-01-19T21:46:15.211Z,6.28
2023-01-19T21:48:42.533Z,6.02
2023-01-19T21:51:09.951Z,5.82
2023-01-19T21:53:37.567Z,6.25
2023-01-19T21:56:06.125Z,6.18
2023-01-19T21:58:33.353Z,6.18
2023-01-19T22:01:05.055Z,6.64
2023-01-19T22:03:32.754Z,7.03
2023-01-19T22:06:06.947Z,6.99
2023-01-19T22:08:34.626Z,7.05
2023-01-19T22:11:05.039Z,7.13
2023-01-19T22:13:32.923Z,7.77
2023-01-19T22:16:01.191Z,8.14
2023-01-19T22:18:28.452Z,7.47
2023-01-19T22:20:55.589Z,7.76
2023-01-19T22:23:23.098Z,7.70
2023-01-19T22:25:50.254Z,7.57
2023-01-19T22:28:17.442Z,7.97
2023-01-19T22:30:45.585Z,7.72
2023-01-19T22:33:12.830Z,7.84
2023-01-19T22:35:39.997Z,8.09
2023-01-19T22:38:07.613Z,7.17
2023-01-19T22:40:34.813Z,7.99
2023-01-19T22:43:02.006Z,8.30
2023-01-19T22:45:29.423Z,7.12
2023-01-19T22:47:56.614Z,7.81
2023-01-19T22:50:23.802Z,7.74
2023-01-19T22:52:54.895Z,7.78
2023-01-19T22:55:22.124Z,7.94
2023-01-19T22:57:49.308Z,8.34
2023-01-19T23:00:17.013Z,7.60
2023-01-19T23:02:44.173Z,7.83
2023-01-19T23:05:11.840Z,7.12
2023-01-19T23:07:39.822Z,7.36
2023-01-19T23:10:07.306Z,7.54
2023-01-19T23:12:34.508Z,7.56
2023-01-19T23:15:01.972Z,7.59
2023-01-19T23:17:29.184Z,7.56
2023-01-19T23:19:56.459Z,7.57
2023-01-19T23:22:23.958Z,7.46
2023-01-19T23:24:51.138Z,6.96
2023-01-19T23:27:18.323Z,6.99
2023-01-19T23:29:45.818Z,6.42
2023-01-19T23:32:12.992Z,6.41
2023-01-19T23:34:40.176Z,7.47
2023-01-19T23:37:07.597Z,7.79
2023-01-19T23:39:34.768Z,7.06
2023-01-19T23:42:03.577Z,7.40
2023-01-19T23:44:30.995Z,6.76
2023-01-19T23:46:58.230Z,7.13
2023-01-19T23:49:25.497Z,6.67
2023-01-19T23:51:53.113Z,7.40
2023-01-19T23:54:20.375Z,7.46
2023-01-19T23:56:47.572Z,7.39
2023-01-19T23:59:15.455Z,7.43
